Time;durP1;ratioP1;P1;durP2;ratioP2;P2;SDS_P1;SDS_P2;PMS_P1;PMS_P2;Temp;Humidity;BMP_temperature;BMP_pressure;BME280_temperature;BME280_humidity;BME280_pressure;Samples;Min_cycle;Max_cycle;Signal;HPM_P1;HPM_P2
2022/05/26 00:01:33;;;;;;;2.40;1.85;;;15.30;57.80;;;;;;5050502;28;20227;-60
2022/05/26 00:04:04;;;;;;;3.05;2.03;;;15.30;57.70;;;;;;5047417;28;20223;-60
2022/05/26 00:06:35;;;;;;;4.10;2.08;;;15.30;57.70;;;;;;5050481;28;20238;-59
2022/05/26 00:09:06;;;;;;;2.42;1.83;;;15.30;57.80;;;;;;5049526;28;20249;-60
2022/05/26 00:11:39;;;;;;;2.50;1.98;;;15.30;57.70;;;;;;5049876;28;20329;-60
2022/05/26 00:14:11;;;;;;;3.10;2.00;;;15.40;57.80;;;;;;5049239;28;20233;-60
2022/05/26 00:16:47;;;;;;;4.30;2.28;;;15.30;57.70;;;;;;5049861;28;20192;-59
2022/05/26 00:19:20;;;;;;;3.45;1.95;;;15.40;57.70;;;;;;5049232;28;20633;-60
2022/05/26 00:21:51;;;;;;;4.55;2.42;;;15.40;57.80;;;;;;5049679;28;20269;-60
2022/05/26 00:24:22;;;;;;;3.08;2.28;;;15.40;57.80;;;;;;5049306;28;20245;-60
2022/05/26 00:26:53;;;;;;;4.10;2.10;;;15.40;57.70;;;;;;5049266;28;20203;-59
2022/05/26 00:29:24;;;;;;;4.40;2.28;;;15.40;57.70;;;;;;5049630;28;20315;-60
2022/05/26 00:31:56;;;;;;;4.13;2.38;;;15.40;57.90;;;;;;5049388;28;20200;-60
2022/05/26 00:34:27;;;;;;;5.07;2.30;;;15.40;58.00;;;;;;5049674;28;20264;-60
2022/05/26 00:36:57;;;;;;;3.28;2.35;;;15.50;58.20;;;;;;5048046;28;20187;-60
2022/05/26 00:39:29;;;;;;;4.40;2.25;;;15.50;58.60;;;;;;5049694;28;20200;-59
2022/05/26 00:42:01;;;;;;;5.75;2.25;;;15.50;58.90;;;;;;5049241;28;20215;-60
2022/05/26 00:44:33;;;;;;;4.10;2.50;;;15.50;58.70;;;;;;5049547;28;20931;-61
2022/05/26 00:47:10;;;;;;;2.67;2.10;;;15.50;58.60;;;;;;5048826;28;20269;-60
2022/05/26 00:49:46;;;;;;;3.85;2.33;;;15.50;58.50;;;;;;5049665;28;20203;-59
2022/05/26 00:52:21;;;;;;;5.53;2.22;;;15.60;58.40;;;;;;5049619;28;20199;-60
2022/05/26 00:54:53;;;;;;;5.00;2.78;;;15.60;58.70;;;;;;5048386;28;21025;-60
2022/05/26 00:57:32;;;;;;;3.55;2.38;;;15.60;58.70;;;;;;5048923;28;20249;-60
2022/05/26 01:00:06;;;;;;;3.40;2.13;;;15.60;58.60;;;;;;5048315;28;20249;-60
2022/05/26 01:02:43;;;;;;;5.45;1.98;;;15.60;58.50;;;;;;5049294;28;20231;-60
2022/05/26 01:05:19;;;;;;;3.85;2.30;;;15.60;58.40;;;;;;5048044;28;20268;-61
2022/05/26 01:07:50;;;;;;;3.97;2.00;;;15.70;58.40;;;;;;5048821;28;20199;-60
2022/05/26 01:10:45;;;;;;;3.00;2.05;;;15.70;58.30;;;;;;5048721;28;20803;-60
2022/05/26 01:13:19;;;;;;;3.47;1.67;;;15.70;58.80;;;;;;5048975;28;20238;-60
2022/05/26 01:15:56;;;;;;;2.88;1.75;;;15.70;58.10;;;;;;5048795;28;20227;-60
2022/05/26 01:18:36;;;;;;;4.55;2.30;;;15.70;58.30;;;;;;5049283;28;20219;-60
2022/05/26 01:21:12;;;;;;;2.85;1.70;;;15.70;58.40;;;;;;5046995;28;20264;-60
2022/05/26 01:24:26;;;;;;;3.05;1.77;;;15.80;58.40;;;;;;5046077;28;20223;-60
2022/05/26 01:27:24;;;;;;;3.10;1.90;;;15.80;58.30;;;;;;5048067;28;20199;-60
2022/05/26 01:30:25;;;;;;;4.75;2.40;;;15.80;58.20;;;;;;5046077;28;20195;-61
2022/05/26 01:33:30;;;;;;;2.85;1.67;;;15.80;58.20;;;;;;5045517;28;20556;-60
2022/05/26 01:36:19;;;;;;;3.35;1.95;;;15.80;58.10;;;;;;5047956;28;20191;-59
2022/05/26 01:39:01;;;;;;;2.95;1.92;;;15.80;58.10;;;;;;5048239;28;20280;-59
2022/05/26 01:41:54;;;;;;;3.22;1.80;;;15.90;58.20;;;;;;5048582;28;20191;-59
2022/05/26 01:44:32;;;;;;;3.83;1.80;;;15.90;58.30;;;;;;5047785;28;20219;-58
2022/05/26 01:47:09;;;;;;;2.70;2.00;;;15.90;58.20;;;;;;5047675;28;20234;-59
2022/05/26 01:49:46;;;;;;;3.03;1.98;;;15.90;58.20;;;;;;5048307;28;20717;-59
2022/05/26 01:52:19;;;;;;;3.67;1.90;;;15.90;58.10;;;;;;5048397;28;20199;-59
2022/05/26 01:54:56;;;;;;;3.22;1.60;;;16.00;58.10;;;;;;5047656;28;20207;-59
2022/05/26 01:57:31;;;;;;;4.90;1.95;;;16.00;58.00;;;;;;5048017;28;20203;-59
2022/05/26 02:00:07;;;;;;;4.85;1.98;;;16.00;58.00;;;;;;5048219;28;20191;-58
2022/05/26 02:02:40;;;;;;;1.92;1.55;;;16.00;57.90;;;;;;5045775;28;20259;-57
2022/05/26 02:05:16;;;;;;;2.38;1.73;;;16.00;57.80;;;;;;5045877;28;20211;-59
2022/05/26 02:07:52;;;;;;;2.67;1.58;;;16.10;57.80;;;;;;5048355;28;20203;-59
2022/05/26 02:10:25;;;;;;;2.33;1.73;;;16.10;57.80;;;;;;5047605;28;20191;-58
2022/05/26 02:12:59;;;;;;;2.97;1.83;;;16.10;57.70;;;;;;5047583;28;20705;-58
2022/05/26 02:15:35;;;;;;;2.55;1.70;;;16.10;57.70;;;;;;5047168;28;20799;-59
2022/05/26 02:18:08;;;;;;;2.75;1.90;;;16.10;57.60;;;;;;5047347;28;20762;-59
2022/05/26 02:20:46;;;;;;;2.22;1.65;;;16.10;57.60;;;;;;5046947;28;20231;-59
2022/05/26 02:23:26;;;;;;;2.53;1.60;;;16.10;57.60;;;;;;5047106;28;20215;-59
2022/05/26 02:25:57;;;;;;;2.58;1.90;;;16.20;57.60;;;;;;5048413;28;20199;-59
2022/05/26 02:28:28;;;;;;;3.35;1.83;;;16.10;57.50;;;;;;5043801;28;20539;-59
2022/05/26 02:30:59;;;;;;;2.65;1.77;;;16.20;57.50;;;;;;5047767;28;20587;-59
2022/05/26 02:33:29;;;;;;;2.53;1.52;;;16.20;57.50;;;;;;5047606;28;20314;-58
2022/05/26 02:36:02;;;;;;;3.67;1.80;;;16.20;57.40;;;;;;5047963;28;20241;-58
2022/05/26 02:38:33;;;;;;;3.20;1.75;;;16.20;57.40;;;;;;5048827;28;20192;-58
2022/05/26 02:41:03;;;;;;;4.97;2.08;;;16.20;57.40;;;;;;5050796;28;20257;-59
2022/05/26 02:43:35;;;;;;;3.75;2.30;;;16.20;59.30;;;;;;5051816;28;20825;-59
2022/05/26 02:46:14;;;;;;;3.20;1.92;;;16.30;60.50;;;;;;5050387;28;20285;-58
2022/05/26 02:49:00;;;;;;;2.97;1.90;;;16.30;60.40;;;;;;5048710;28;21010;-58
2022/05/26 02:51:37;;;;;;;3.72;1.98;;;16.40;60.00;;;;;;5046690;28;20200;-58
2022/05/26 02:54:19;;;;;;;3.60;2.03;;;16.40;59.70;;;;;;5050745;28;20230;-58
2022/05/26 02:57:02;;;;;;;2.72;2.10;;;16.40;59.40;;;;;;5050580;28;20245;-59
2022/05/26 02:59:37;;;;;;;4.65;2.13;;;16.50;59.30;;;;;;5047802;28;20198;-58
2022/05/26 03:02:12;;;;;;;2.58;2.00;;;16.50;59.00;;;;;;5051341;28;20241;-58
2022/05/26 03:04:46;;;;;;;3.63;2.42;;;16.50;58.90;;;;;;5051691;28;20211;-58
2022/05/26 03:07:21;;;;;;;1.83;1.55;;;16.50;58.80;;;;;;5051636;28;20264;-58
2022/05/26 03:09:52;;;;;;;2.50;1.88;;;16.50;58.70;;;;;;5051930;28;20260;-59
2022/05/26 03:12:32;;;;;;;3.70;1.88;;;16.50;58.60;;;;;;5051812;28;20757;-59
2022/05/26 03:15:03;;;;;;;4.07;1.98;;;16.50;58.50;;;;;;5050945;28;20207;-58
2022/05/26 03:17:34;;;;;;;3.55;1.92;;;16.50;58.40;;;;;;5050979;28;20196;-59
2022/05/26 03:20:05;;;;;;;3.58;2.10;;;16.50;58.30;;;;;;5050595;28;20261;-58
2022/05/26 03:22:38;;;;;;;3.38;1.92;;;16.50;58.20;;;;;;5047639;28;20266;-59
2022/05/26 03:25:09;;;;;;;2.97;2.30;;;16.60;58.30;;;;;;5050444;28;20218;-59
2022/05/26 03:27:39;;;;;;;3.03;2.20;;;16.50;58.20;;;;;;5049589;28;20204;-58
2022/05/26 03:30:10;;;;;;;2.83;2.00;;;16.60;58.20;;;;;;5048476;28;20199;-58
2022/05/26 03:32:41;;;;;;;3.22;1.88;;;16.60;58.30;;;;;;5051165;28;20199;-59
2022/05/26 03:40:58;;;;;;;3.47;1.83;;;16.60;58.20;;;;;;5050609;28;20273;-59
2022/05/26 03:43:33;;;;;;;3.88;1.90;;;16.70;58.20;;;;;;5050304;28;20237;-59
2022/05/26 03:46:05;;;;;;;3.50;2.10;;;16.70;58.80;;;;;;5050086;28;20245;-59
2022/05/26 03:48:36;;;;;;;3.10;2.03;;;16.70;58.20;;;;;;5050644;28;20288;-59
2022/05/26 03:51:07;;;;;;;2.35;1.73;;;16.70;58.20;;;;;;5049399;28;20194;-59
2022/05/26 03:53:39;;;;;;;2.78;1.75;;;16.70;58.10;;;;;;5050350;28;20218;-59
2022/05/26 03:56:10;;;;;;;3.00;1.80;;;16.70;58.10;;;;;;5047341;28;20889;-58
2022/05/26 03:58:40;;;;;;;3.05;2.03;;;16.80;58.00;;;;;;5050384;28;20199;-59
2022/05/26 04:01:12;;;;;;;3.47;2.38;;;16.80;58.00;;;;;;5050155;28;20199;-59
2022/05/26 04:03:42;;;;;;;5.97;3.90;;;16.80;58.00;;;;;;5050306;28;20631;-59
2022/05/26 04:06:13;;;;;;;5.43;3.60;;;16.80;57.90;;;;;;5049957;28;20756;-59
2022/05/26 04:08:45;;;;;;;5.65;3.33;;;16.80;57.80;;;;;;5049768;28;20257;-58
2022/05/26 04:11:16;;;;;;;4.85;3.20;;;16.80;57.80;;;;;;5050081;28;20241;-58
2022/05/26 04:13:46;;;;;;;6.03;3.40;;;16.90;57.80;;;;;;5049142;28;20219;-59
2022/05/26 04:16:17;;;;;;;4.07;3.17;;;16.90;57.70;;;;;;5048286;28;20191;-59
2022/05/26 04:18:47;;;;;;;5.97;3.60;;;16.90;57.70;;;;;;5049754;28;20249;-58
2022/05/26 04:21:18;;;;;;;5.22;3.45;;;16.90;57.60;;;;;;5049079;28;20204;-58
2022/05/26 04:23:51;;;;;;;4.03;2.97;;;16.90;57.60;;;;;;5049592;28;20254;-58
2022/05/26 04:26:21;;;;;;;4.35;3.08;;;16.90;57.50;;;;;;5048318;28;20192;-57
2022/05/26 04:28:52;;;;;;;6.50;3.85;;;16.90;57.50;;;;;;5049868;28;20187;-58
2022/05/26 04:31:22;;;;;;;4.97;3.25;;;16.90;57.40;;;;;;5049499;28;20219;-58
2022/05/26 04:33:53;;;;;;;6.50;3.90;;;16.90;57.30;;;;;;5049193;28;20242;-58
2022/05/26 04:36:24;;;;;;;5.75;3.78;;;16.90;57.30;;;;;;5048915;28;20237;-57
2022/05/26 04:38:56;;;;;;;5.05;3.63;;;16.90;57.20;;;;;;5049201;28;20219;-58
2022/05/26 04:41:27;;;;;;;4.05;3.25;;;17.00;57.20;;;;;;5048273;28;20262;-56
2022/05/26 04:43:57;;;;;;;5.28;3.58;;;16.90;57.10;;;;;;5048326;28;21594;-57
2022/05/26 04:46:28;;;;;;;4.95;3.33;;;16.90;57.10;;;;;;5048993;28;20709;-57
2022/05/26 04:48:58;;;;;;;4.60;3.20;;;16.90;57.10;;;;;;5049367;28;20770;-57
2022/05/26 04:51:29;;;;;;;5.95;3.58;;;16.90;57.10;;;;;;5049650;28;20188;-58
2022/05/26 04:54:01;;;;;;;4.82;3.47;;;16.90;57.00;;;;;;5048318;28;20249;-57
2022/05/26 04:56:32;;;;;;;4.57;3.55;;;16.90;57.00;;;;;;5044358;28;20199;-57
2022/05/26 04:59:03;;;;;;;4.07;2.92;;;16.90;56.90;;;;;;5047324;28;20241;-57
2022/05/26 05:01:36;;;;;;;4.32;3.05;;;16.90;56.90;;;;;;5048047;28;20237;-56
2022/05/26 05:04:07;;;;;;;4.55;3.40;;;16.90;56.90;;;;;;5048437;28;20219;-56
2022/05/26 05:06:38;;;;;;;5.18;3.50;;;16.90;56.90;;;;;;5048549;28;20192;-57
2022/05/26 05:09:10;;;;;;;4.88;3.67;;;16.90;56.90;;;;;;5049195;28;20533;-56
2022/05/26 05:11:40;;;;;;;5.45;3.55;;;16.90;56.80;;;;;;5048081;28;20192;-56
2022/05/26 05:14:11;;;;;;;5.38;3.53;;;16.90;56.80;;;;;;5048840;28;20253;-57
2022/05/26 05:16:44;;;;;;;5.97;3.30;;;16.90;56.70;;;;;;5048737;28;20195;-56
2022/05/26 05:19:15;;;;;;;5.18;3.72;;;16.90;56.70;;;;;;5049557;28;20203;-57
2022/05/26 05:21:48;;;;;;;4.38;3.30;;;16.90;56.70;;;;;;5048914;28;20227;-58
2022/05/26 05:24:25;;;;;;;4.80;3.50;;;16.90;56.70;;;;;;5046142;28;20227;-57
2022/05/26 05:27:01;;;;;;;3.75;3.35;;;16.80;56.60;;;;;;5048615;28;20196;-58
2022/05/26 05:29:37;;;;;;;4.15;3.25;;;16.80;56.60;;;;;;5048176;28;20276;-58
2022/05/26 05:32:13;;;;;;;4.82;3.80;;;16.80;56.50;;;;;;5045994;28;20245;-58
2022/05/26 05:34:46;;;;;;;6.25;3.95;;;16.80;57.10;;;;;;5046962;28;20261;-59
2022/05/26 05:37:17;;;;;;;4.35;3.38;;;16.80;56.50;;;;;;5045553;28;20614;-57
2022/05/26 05:39:50;;;;;;;4.88;3.83;;;16.70;56.50;;;;;;5047790;28;20215;-57
2022/05/26 05:42:21;;;;;;;5.80;3.67;;;16.70;56.50;;;;;;5047545;28;20192;-58
2022/05/26 05:44:51;;;;;;;5.60;3.75;;;16.70;56.50;;;;;;5047982;28;20296;-57
2022/05/26 05:47:22;;;;;;;6.30;4.00;;;16.70;56.50;;;;;;5048078;28;20188;-57
2022/05/26 05:49:53;;;;;;;6.40;3.72;;;16.70;56.50;;;;;;5045561;28;20215;-57
2022/05/26 05:52:25;;;;;;;5.45;3.72;;;16.70;56.50;;;;;;5048911;28;20963;-58
2022/05/26 05:54:59;;;;;;;5.45;3.72;;;16.60;56.40;;;;;;5047336;28;20639;-57
2022/05/26 05:57:29;;;;;;;5.82;3.63;;;16.60;56.40;;;;;;5047990;28;20651;-58
2022/05/26 06:00:00;;;;;;;5.93;3.97;;;16.60;56.30;;;;;;5047952;28;20195;-58
2022/05/26 06:02:31;;;;;;;7.38;3.75;;;16.60;56.30;;;;;;5047138;28;20296;-58
2022/05/26 06:05:01;;;;;;;5.03;3.83;;;16.60;56.40;;;;;;5048085;28;20231;-58
2022/05/26 06:07:32;;;;;;;6.35;4.35;;;16.50;56.30;;;;;;5047709;28;20199;-56
2022/05/26 06:10:06;;;;;;;6.05;4.00;;;16.50;56.30;;;;;;5048294;28;20636;-59
2022/05/26 06:12:37;;;;;;;5.97;4.47;;;16.50;56.30;;;;;;5047176;28;20236;-59
2022/05/26 06:15:08;;;;;;;5.82;4.55;;;16.50;56.40;;;;;;5052083;28;20223;-58
2022/05/26 06:17:39;;;;;;;8.02;5.10;;;16.40;56.40;;;;;;5052203;28;20261;-57
2022/05/26 06:20:10;;;;;;;6.93;4.45;;;16.40;56.40;;;;;;5052132;28;20199;-54
2022/05/26 06:22:44;;;;;;;6.60;4.93;;;16.40;56.40;;;;;;5048256;28;20196;-58
2022/05/26 06:25:18;;;;;;;7.25;4.57;;;16.40;56.50;;;;;;5051777;28;20218;-58
2022/05/26 06:30:36;;;;;;;5.97;4.35;;;16.30;56.50;;;;;;5052340;28;20222;-58
2022/05/26 06:38:41;;;;;;;7.15;5.10;;;16.30;56.50;;;;;;5051489;28;20202;-57
2022/05/26 06:43:59;;;;;;;6.85;5.00;;;16.30;56.80;;;;;;5006375;28;20758;-58
2022/05/26 06:46:30;;;;;;;5.65;4.53;;;16.20;56.90;;;;;;5050785;28;20188;-58
2022/05/26 06:49:01;;;;;;;9.02;5.35;;;16.20;56.90;;;;;;5052005;28;20224;-59
2022/05/26 06:51:34;;;;;;;7.47;5.40;;;16.20;56.80;;;;;;5051982;28;20257;-58
2022/05/26 06:54:04;;;;;;;6.32;4.45;;;16.20;56.80;;;;;;5051929;28;20211;-57
2022/05/26 06:56:37;;;;;;;7.40;5.13;;;16.20;56.70;;;;;;5050818;28;20207;-58
2022/05/26 06:59:08;;;;;;;7.63;4.80;;;16.20;56.70;;;;;;5051874;28;20191;-58
2022/05/26 07:01:38;;;;;;;6.82;3.92;;;16.10;56.60;;;;;;5051233;28;20269;-59
2022/05/26 07:04:09;;;;;;;5.10;4.20;;;16.10;56.60;;;;;;5051636;28;20273;-59
2022/05/26 07:06:39;;;;;;;5.72;4.13;;;16.10;56.60;;;;;;5050968;28;20226;-58
2022/05/26 07:09:10;;;;;;;6.30;4.68;;;16.10;56.60;;;;;;5051381;28;20203;-56
2022/05/26 07:11:42;;;;;;;5.90;4.55;;;16.00;56.60;;;;;;5049947;28;20292;-58
2022/05/26 07:14:13;;;;;;;6.85;4.57;;;16.00;56.60;;;;;;5050011;28;20258;-57
2022/05/26 07:16:45;;;;;;;6.55;4.63;;;16.00;56.60;;;;;;5050814;28;20188;-58
2022/05/26 07:19:16;;;;;;;6.40;4.43;;;16.00;57.20;;;;;;5050645;28;20226;-58
2022/05/26 07:21:48;;;;;;;6.30;4.90;;;15.90;56.50;;;;;;5050738;28;20192;-58
2022/05/26 07:24:20;;;;;;;7.78;5.20;;;15.90;56.50;;;;;;5048119;28;20302;-58
2022/05/26 07:26:53;;;;;;;6.45;4.93;;;15.90;56.50;;;;;;5048130;28;20306;-58
2022/05/26 07:29:23;;;;;;;7.03;5.03;;;15.90;56.50;;;;;;5050751;28;20238;-58
2022/05/26 07:31:54;;;;;;;6.47;4.88;;;15.90;56.50;;;;;;5050640;28;20227;-59
2022/05/26 07:34:26;;;;;;;7.22;5.07;;;15.80;56.50;;;;;;5051134;28;20215;-59
2022/05/26 07:42:36;;;;;;;7.63;4.88;;;15.80;56.50;;;;;;5014216;28;20659;-57
2022/05/26 07:45:09;;;;;;;6.80;5.10;;;15.80;56.60;;;;;;5013858;28;20270;-58
2022/05/26 07:47:39;;;;;;;6.55;4.43;;;15.70;56.50;;;;;;5019046;28;20185;-56
2022/05/26 07:50:19;;;;;;;5.97;4.60;;;15.70;56.50;;;;;;5033565;28;20200;-56
2022/05/26 07:52:50;;;;;;;6.22;4.32;;;15.70;56.50;;;;;;5032939;28;20207;-57
2022/05/26 07:55:22;;;;;;;4.50;4.00;;;15.70;56.50;;;;;;5033365;28;20196;-58
2022/05/26 07:57:56;;;;;;;6.15;4.45;;;15.70;56.60;;;;;;5033306;28;20212;-56
2022/05/26 08:00:27;;;;;;;5.55;4.63;;;15.60;56.50;;;;;;5033753;28;20195;-58
2022/05/26 08:02:58;;;;;;;5.68;4.47;;;15.60;56.40;;;;;;5034054;28;20246;-57
2022/05/26 08:05:28;;;;;;;5.10;3.92;;;15.60;56.40;;;;;;5033226;28;20242;-57
2022/05/26 08:07:59;;;;;;;5.40;4.18;;;15.60;56.50;;;;;;5032961;28;20196;-58
2022/05/26 08:10:29;;;;;;;5.78;4.57;;;15.60;56.50;;;;;;5033100;28;20231;-58
2022/05/26 08:13:02;;;;;;;7.03;4.30;;;15.50;56.50;;;;;;5032697;28;20650;-59
2022/05/26 08:15:33;;;;;;;5.30;4.38;;;15.50;56.50;;;;;;5032969;28;20196;-57
2022/05/26 08:18:03;;;;;;;5.10;4.07;;;15.50;56.50;;;;;;5032990;28;20200;-57
2022/05/26 08:20:34;;;;;;;6.47;4.32;;;15.50;56.40;;;;;;5032695;28;20200;-59
2022/05/26 08:23:04;;;;;;;4.95;3.95;;;15.50;56.50;;;;;;5032493;28;20612;-58
2022/05/26 08:25:35;;;;;;;5.47;3.72;;;15.40;56.50;;;;;;5032793;28;20228;-57
2022/05/26 08:28:08;;;;;;;4.72;3.80;;;15.40;56.50;;;;;;5032698;28;20192;-57
2022/05/26 08:30:39;;;;;;;5.43;3.90;;;15.40;56.40;;;;;;5032967;28;20195;-56
2022/05/26 08:33:10;;;;;;;5.70;3.92;;;15.40;56.50;;;;;;5032292;28;20218;-58
2022/05/26 08:35:40;;;;;;;5.35;3.72;;;15.40;56.50;;;;;;5032263;28;20200;-57
2022/05/26 08:38:11;;;;;;;6.15;4.55;;;15.40;56.50;;;;;;5032286;28;20200;-55
2022/05/26 08:40:44;;;;;;;5.47;4.10;;;15.40;56.50;;;;;;5033149;28;20203;-59
2022/05/26 08:43:21;;;;;;;4.00;3.38;;;15.40;56.50;;;;;;5032593;28;20216;-58
2022/05/26 08:45:54;;;;;;;4.70;3.67;;;15.30;56.50;;;;;;5032484;28;20313;-59
2022/05/26 08:48:43;;;;;;;5.80;4.10;;;15.30;56.50;;;;;;5032477;28;20242;-58
2022/05/26 08:51:19;;;;;;;6.20;4.13;;;15.30;56.50;;;;;;5032819;28;20196;-58
2022/05/26 08:53:49;;;;;;;5.38;4.18;;;15.30;56.50;;;;;;5031938;28;20276;-57
2022/05/26 08:56:27;;;;;;;5.65;3.63;;;15.30;56.50;;;;;;5032333;28;20196;-58
2022/05/26 08:59:04;;;;;;;5.10;4.00;;;15.30;56.50;;;;;;5032196;28;20250;-57
2022/05/26 09:01:35;;;;;;;5.63;3.88;;;15.20;56.40;;;;;;5032477;28;20196;-59
2022/05/26 09:04:06;;;;;;;5.00;3.95;;;15.20;56.40;;;;;;5032428;28;20216;-59
2022/05/26 09:15:03;;;;;;;6.00;3.75;;;15.10;56.40;;;;;;5018811;28;20351;-59
2022/05/26 09:17:33;;;;;;;4.43;3.55;;;15.10;56.40;;;;;;5031542;28;20238;-57
2022/05/26 09:20:05;;;;;;;5.30;4.13;;;15.10;56.40;;;;;;5032099;28;20224;-60
2022/05/26 09:22:44;;;;;;;5.07;3.92;;;15.10;56.50;;;;;;5031602;28;20203;-59
2022/05/26 09:25:36;;;;;;;4.57;3.50;;;15.10;56.60;;;;;;5031930;28;20228;-59
2022/05/26 09:28:07;;;;;;;5.70;3.97;;;15.10;56.60;;;;;;5031636;28;20251;-59
2022/05/26 09:30:40;;;;;;;5.03;3.85;;;15.10;56.60;;;;;;5031678;28;20200;-59
2022/05/26 09:33:31;;;;;;;4.60;3.60;;;15.10;56.60;;;;;;5029867;28;20221;-58
2022/05/26 09:36:24;;;;;;;4.80;3.40;;;15.00;56.60;;;;;;5011783;28;20202;-58
2022/05/26 09:38:55;;;;;;;5.43;3.97;;;15.00;57.10;;;;;;5022419;28;20690;-58
2022/05/26 09:41:25;;;;;;;5.88;4.00;;;15.00;57.20;;;;;;5046880;28;20191;-57
2022/05/26 09:43:58;;;;;;;5.20;3.80;;;15.00;57.10;;;;;;5047230;28;20248;-56
2022/05/26 09:46:31;;;;;;;4.43;3.72;;;15.00;57.10;;;;;;5044795;28;20212;-56
2022/05/26 09:49:07;;;;;;;5.90;3.83;;;15.00;57.00;;;;;;5048392;28;20655;-56
2022/05/26 09:51:45;;;;;;;4.95;3.30;;;15.00;57.00;;;;;;5048478;28;20192;-56
2022/05/26 09:54:34;;;;;;;5.00;3.45;;;14.90;56.90;;;;;;5048253;28;20243;-59
2022/05/26 09:57:16;;;;;;;4.65;3.53;;;14.90;56.90;;;;;;5046869;28;20290;-57
2022/05/26 09:59:47;;;;;;;5.40;3.78;;;14.90;56.90;;;;;;5045635;28;20188;-58
2022/05/26 10:02:28;;;;;;;6.70;3.88;;;14.90;56.80;;;;;;5048974;28;20188;-58
2022/05/26 10:05:05;;;;;;;4.25;3.33;;;14.90;56.80;;;;;;5048370;28;20300;-59
2022/05/26 10:07:53;;;;;;;4.13;3.30;;;14.90;56.80;;;;;;5048147;28;20319;-57
2022/05/26 10:10:29;;;;;;;4.50;3.47;;;14.90;56.80;;;;;;5048141;28;20202;-58
2022/05/26 10:13:22;;;;;;;3.88;3.10;;;14.80;56.80;;;;;;5048336;28;20194;-57
2022/05/26 10:16:01;;;;;;;4.50;3.47;;;14.80;56.80;;;;;;5046041;28;20200;-56
2022/05/26 10:19:08;;;;;;;3.85;3.00;;;14.80;56.70;;;;;;5047540;28;20235;-59
2022/05/26 10:21:50;;;;;;;4.50;3.70;;;14.80;56.70;;;;;;5037223;28;20243;-58
2022/05/26 10:24:42;;;;;;;5.70;3.40;;;14.80;56.70;;;;;;5047332;28;20245;-57
2022/05/26 10:27:27;;;;;;;4.85;3.33;;;14.80;56.70;;;;;;5011696;28;20199;-59
2022/05/26 10:30:22;;;;;;;3.92;3.15;;;14.80;56.70;;;;;;5047251;28;20301;-59
2022/05/26 10:33:28;;;;;;;5.68;3.17;;;14.70;56.60;;;;;;5047357;28;20195;-56
2022/05/26 10:36:12;;;;;;;4.50;3.05;;;14.70;56.60;;;;;;5032269;28;20214;-57
2022/05/26 10:39:05;;;;;;;3.60;3.28;;;14.70;56.60;;;;;;5047291;28;20198;-57
2022/05/26 10:41:40;;;;;;;4.47;3.30;;;14.70;56.60;;;;;;5047303;28;20195;-58
2022/05/26 10:44:21;;;;;;;4.97;3.47;;;14.70;56.60;;;;;;5046156;28;20631;-53
2022/05/26 10:47:00;;;;;;;4.75;3.30;;;14.60;56.60;;;;;;5048532;28;20226;-56
2022/05/26 10:49:40;;;;;;;4.18;3.20;;;14.60;57.30;;;;;;5047645;28;20758;-58
2022/05/26 10:52:18;;;;;;;4.32;3.55;;;14.60;57.40;;;;;;5047452;28;20470;-59
2022/05/26 10:54:54;;;;;;;4.85;3.25;;;14.60;57.20;;;;;;5047806;28;20293;-57
2022/05/26 10:57:32;;;;;;;5.38;3.28;;;14.60;57.20;;;;;;5048083;28;20199;-58
2022/05/26 11:00:08;;;;;;;8.00;2.90;;;14.60;57.20;;;;;;5048959;28;20199;-58
2022/05/26 11:02:50;;;;;;;3.95;2.83;;;14.60;57.10;;;;;;5052026;28;20253;-56
2022/05/26 11:05:31;;;;;;;4.72;3.17;;;14.60;57.00;;;;;;5051215;28;20215;-53
2022/05/26 11:08:17;;;;;;;3.92;2.72;;;14.60;57.00;;;;;;5050522;28;20215;-58
2022/05/26 11:10:51;;;;;;;5.00;3.15;;;14.50;56.90;;;;;;5051064;28;20249;-57
2022/05/26 11:13:26;;;;;;;4.32;3.17;;;14.50;56.90;;;;;;5050807;28;20215;-57
2022/05/26 11:18:57;;;;;;;3.88;2.72;;;14.50;56.90;;;;;;5050799;28;20211;-58
2022/05/26 11:21:27;;;;;;;3.10;2.60;;;14.50;56.80;;;;;;5050770;28;20218;-56
2022/05/26 11:24:00;;;;;;;4.18;3.10;;;14.50;56.90;;;;;;5050785;28;20207;-56
2022/05/26 11:26:41;;;;;;;3.20;2.90;;;14.50;56.90;;;;;;5051269;28;20742;-58
2022/05/26 11:29:21;;;;;;;2.72;2.50;;;14.40;56.80;;;;;;5050381;28;20249;-58
2022/05/26 11:37:37;;;;;;;3.83;2.53;;;14.40;56.70;;;;;;5048631;28;20287;-59
2022/05/26 11:40:12;;;;;;;3.53;2.67;;;14.40;56.70;;;;;;5050598;28;20187;-57
2022/05/26 11:42:54;;;;;;;4.90;3.00;;;14.40;56.70;;;;;;5050581;28;20738;-58
2022/05/26 11:45:26;;;;;;;4.30;2.72;;;14.30;56.70;;;;;;5050147;28;20245;-58
2022/05/26 11:47:59;;;;;;;3.63;2.83;;;14.40;56.70;;;;;;5049585;28;20329;-58
2022/05/26 11:50:45;;;;;;;4.57;2.90;;;14.40;56.70;;;;;;5050498;28;20192;-58
2022/05/26 11:53:32;;;;;;;4.28;2.90;;;14.30;56.60;;;;;;5046994;28;20748;-58
2022/05/26 11:56:05;;;;;;;3.83;2.85;;;14.30;56.60;;;;;;5049837;28;20576;-58
2022/05/26 11:58:38;;;;;;;3.83;2.63;;;14.30;56.60;;;;;;5050131;28;20195;-58
2022/05/26 12:01:35;;;;;;;3.90;2.65;;;14.30;56.60;;;;;;5048950;28;21068;-58
2022/05/26 12:04:27;;;;;;;3.83;2.80;;;14.20;56.60;;;;;;5050029;28;20226;-58
2022/05/26 12:07:01;;;;;;;3.67;2.80;;;14.30;56.60;;;;;;5046238;28;20223;-56
2022/05/26 12:09:48;;;;;;;4.38;2.83;;;14.30;56.60;;;;;;5033351;28;20545;-53
2022/05/26 12:12:35;;;;;;;4.00;2.92;;;14.20;56.50;;;;;;5031136;28;20250;-56
2022/05/26 12:15:09;;;;;;;3.22;2.67;;;14.20;56.60;;;;;;5031526;28;20225;-57
2022/05/26 12:17:42;;;;;;;3.83;3.08;;;14.20;56.60;;;;;;5031447;28;20200;-58
2022/05/26 12:20:35;;;;;;;3.08;2.40;;;14.20;56.60;;;;;;5031405;28;20199;-58
2022/05/26 12:23:30;;;;;;;3.97;2.70;;;14.10;56.50;;;;;;5030946;28;20246;-57
2022/05/26 12:26:28;;;;;;;3.22;2.75;;;14.20;56.60;;;;;;5031367;28;20254;-59
2022/05/26 12:29:38;;;;;;;2.92;2.40;;;14.20;56.60;;;;;;5031233;28;20732;-58
2022/05/26 12:32:13;;;;;;;3.83;2.63;;;14.20;56.60;;;;;;5031274;28;20242;-59
2022/05/26 12:34:55;;;;;;;3.55;2.42;;;14.10;56.40;;;;;;5031158;28;20262;-54
2022/05/26 12:37:43;;;;;;;3.30;2.17;;;14.10;56.40;;;;;;5031153;28;20257;-56
2022/05/26 12:40:34;;;;;;;3.35;2.40;;;14.10;56.50;;;;;;5031048;28;20242;-57
2022/05/26 12:43:44;;;;;;;3.80;2.63;;;14.10;56.50;;;;;;5030479;28;20196;-58
2022/05/26 12:46:44;;;;;;;3.33;2.42;;;14.10;56.50;;;;;;5010693;28;20379;-58
2022/05/26 12:49:35;;;;;;;2.80;2.50;;;14.10;56.40;;;;;;5011013;28;20192;-57
2022/05/26 12:52:17;;;;;;;2.97;2.30;;;14.00;56.50;;;;;;5012337;28;20247;-57
2022/05/26 12:54:52;;;;;;;3.42;2.55;;;14.00;56.50;;;;;;5031091;28;20278;-58
2022/05/26 12:57:33;;;;;;;3.35;2.20;;;14.00;56.50;;;;;;5031230;28;20207;-58
2022/05/26 13:00:25;;;;;;;2.65;2.25;;;14.00;56.50;;;;;;5030898;28;20207;-57
2022/05/26 13:02:59;;;;;;;2.85;2.08;;;14.00;56.50;;;;;;5031005;28;20200;-58
2022/05/26 13:05:32;;;;;;;2.88;2.38;;;14.00;56.50;;;;;;5030751;28;20223;-57
2022/05/26 13:08:04;;;;;;;3.08;2.22;;;14.00;56.50;;;;;;5030363;28;20334;-59
2022/05/26 13:10:38;;;;;;;2.92;2.42;;;14.00;56.50;;;;;;5030574;28;20192;-58
2022/05/26 13:13:21;;;;;;;3.17;2.10;;;13.90;56.40;;;;;;5030260;28;20249;-58
2022/05/26 13:15:54;;;;;;;2.88;2.15;;;13.90;56.40;;;;;;5030786;28;20208;-53
2022/05/26 13:18:27;;;;;;;3.33;2.10;;;13.90;56.40;;;;;;5030366;28;20718;-55
2022/05/26 13:21:00;;;;;;;3.00;2.08;;;13.90;56.40;;;;;;5030040;28;20192;-56
2022/05/26 13:23:31;;;;;;;2.63;2.13;;;13.90;56.40;;;;;;5029912;28;20224;-56
2022/05/26 13:26:03;;;;;;;3.05;2.17;;;13.90;56.40;;;;;;5029664;28;20256;-57
2022/05/26 13:28:35;;;;;;;3.60;2.53;;;13.90;56.40;;;;;;5027632;28;20269;-57
2022/05/26 13:33:54;;;;;;;2.67;2.10;;;13.90;56.40;;;;;;5030862;28;20346;-58
2022/05/26 13:36:32;;;;;;;3.85;2.33;;;13.90;56.40;;;;;;5029974;28;20195;-58
2022/05/26 13:39:09;;;;;;;3.33;2.10;;;13.80;56.30;;;;;;5029394;28;20210;-57
2022/05/26 13:41:41;;;;;;;2.88;1.55;;;13.80;56.30;;;;;;5030195;28;20254;-56
2022/05/26 13:44:15;;;;;;;2.53;1.95;;;13.80;56.30;;;;;;5030134;28;20208;-57
2022/05/26 13:46:51;;;;;;;2.90;2.30;;;13.80;56.30;;;;;;5029549;28;20285;-52
2022/05/26 13:49:32;;;;;;;2.85;2.08;;;13.80;56.30;;;;;;5029619;28;20207;-56
2022/05/26 13:52:08;;;;;;;4.05;2.28;;;13.80;56.30;;;;;;5029748;28;20404;-58
2022/05/26 13:54:41;;;;;;;3.42;2.00;;;13.80;56.30;;;;;;5026058;28;20278;-58
2022/05/26 13:57:20;;;;;;;2.53;1.83;;;13.80;56.30;;;;;;5029463;28;20211;-57
2022/05/26 13:59:53;;;;;;;2.72;1.95;;;13.70;56.30;;;;;;5029692;28;20250;-57
2022/05/26 14:02:27;;;;;;;2.80;2.10;;;13.70;56.30;;;;;;5030161;28;20249;-56
2022/05/26 14:05:19;;;;;;;3.17;1.92;;;13.80;56.90;;;;;;5029088;28;20212;-57
2022/05/26 14:08:02;;;;;;;2.08;1.88;;;13.70;56.30;;;;;;5028925;28;20192;-57
2022/05/26 14:10:39;;;;;;;2.80;1.85;;;13.70;56.20;;;;;;5029567;28;20196;-56
2022/05/26 14:13:11;;;;;;;2.80;1.90;;;13.70;56.30;;;;;;5029507;28;20227;-56
2022/05/26 14:15:44;;;;;;;2.60;1.75;;;13.70;56.30;;;;;;5029954;28;20200;-54